sensor_id;sensor_type;location;lat;lon;timestamp;P1;durP1;ratioP1;P2;durP2;ratioP2
1082;SDS011;530;51.448;7.238;2023-04-06T00:01:47;12.10;;;9.00;;
1082;SDS011;530;51.448;7.238;2023-04-06T00:04:12;11.70;;;8.57;;
1082;SDS011;530;51.448;7.238;2023-04-06T00:06:38;14.40;;;9.07;;
1082;SDS011;530;51.448;7.238;2023-04-06T00:09:04;11.13;;;8.40;;
1082;SDS011;530;51.448;7.238;2023-04-06T00:11:30;14.67;;;9.07;;
1082;SDS011;530;51.448;7.238;2023-04-06T00:13:55;11.67;;;8.20;;
1082;SDS011;530;51.448;7.238;2023-04-06T00:16:21;10.23;;;8.10;;
1082;SDS011;530;51.448;7.238;2023-04-06T00:18:47;10.70;;;8.53;;
1082;SDS011;530;51.448;7.238;2023-04-06T00:21:13;10.63;;;9.20;;
1082;SDS011;530;51.448;7.238;2023-04-06T00:23:39;9.80;;;8.20;;
1082;SDS011;530;51.448;7.238;2023-04-06T00:26:06;9.47;;;7.90;;
1082;SDS011;530;51.448;7.238;2023-04-06T00:28:33;9.87;;;8.30;;
1082;SDS011;530;51.448;7.238;2023-04-06T00:30:58;11.20;;;9.00;;
1082;SDS011;530;51.448;7.238;2023-04-06T00:33:24;10.33;;;8.70;;
1082;SDS011;530;51.448;7.238;2023-04-06T00:35:50;9.60;;;8.60;;
1082;SDS011;530;51.448;7.238;2023-04-06T00:38:16;10.40;;;8.90;;
1082;SDS011;530;51.448;7.238;2023-04-06T00:40:42;10.43;;;8.80;;
1082;SDS011;530;51.448;7.238;2023-04-06T00:43:12;11.73;;;8.70;;
1082;SDS011;530;51.448;7.238;2023-04-06T00:45:38;10.80;;;8.40;;
1082;SDS011;530;51.448;7.238;2023-04-06T00:48:05;10.10;;;9.00;;
1082;SDS011;530;51.448;7.238;2023-04-06T00:50:31;11.80;;;9.50;;
1082;SDS011;530;51.448;7.238;2023-04-06T00:52:57;10.27;;;8.53;;
1082;SDS011;530;51.448;7.238;2023-04-06T00:55:23;11.77;;;9.40;;
1082;SDS011;530;51.448;7.238;2023-04-06T00:57:51;13.60;;;10.07;;
1082;SDS011;530;51.448;7.238;2023-04-06T01:00:17;13.20;;;8.73;;
1082;SDS011;530;51.448;7.238;2023-04-06T01:02:42;10.83;;;8.80;;
1082;SDS011;530;51.448;7.238;2023-04-06T01:05:10;11.13;;;8.17;;
1082;SDS011;530;51.448;7.238;2023-04-06T01:07:36;12.67;;;9.60;;
1082;SDS011;530;51.448;7.238;2023-04-06T01:10:02;10.90;;;8.50;;
1082;SDS011;530;51.448;7.238;2023-04-06T01:12:28;14.37;;;9.47;;
1082;SDS011;530;51.448;7.238;2023-04-06T01:14:54;12.73;;;9.03;;
1082;SDS011;530;51.448;7.238;2023-04-06T01:17:21;10.20;;;8.80;;
1082;SDS011;530;51.448;7.238;2023-04-06T01:19:47;15.17;;;10.73;;
1082;SDS011;530;51.448;7.238;2023-04-06T01:22:18;11.00;;;8.40;;
1082;SDS011;530;51.448;7.238;2023-04-06T01:24:44;12.77;;;8.47;;
1082;SDS011;530;51.448;7.238;2023-04-06T01:27:10;9.47;;;8.13;;
1082;SDS011;530;51.448;7.238;2023-04-06T01:29:36;10.40;;;8.70;;
1082;SDS011;530;51.448;7.238;2023-04-06T01:32:02;11.90;;;8.90;;
1082;SDS011;530;51.448;7.238;2023-04-06T01:34:28;13.20;;;9.10;;
1082;SDS011;530;51.448;7.238;2023-04-06T01:36:54;9.60;;;7.70;;
1082;SDS011;530;51.448;7.238;2023-04-06T01:39:20;8.97;;;7.80;;
1082;SDS011;530;51.448;7.238;2023-04-06T01:41:45;9.57;;;8.00;;
1082;SDS011;530;51.448;7.238;2023-04-06T01:44:12;9.70;;;8.40;;
1082;SDS011;530;51.448;7.238;2023-04-06T01:46:41;10.70;;;8.47;;
1082;SDS011;530;51.448;7.238;2023-04-06T01:49:07;13.60;;;8.83;;
1082;SDS011;530;51.448;7.238;2023-04-06T01:51:32;13.60;;;7.80;;
1082;SDS011;530;51.448;7.238;2023-04-06T01:53:58;10.17;;;8.57;;
1082;SDS011;530;51.448;7.238;2023-04-06T01:56:24;11.10;;;7.97;;
1082;SDS011;530;51.448;7.238;2023-04-06T01:58:50;10.33;;;7.90;;
1082;SDS011;530;51.448;7.238;2023-04-06T02:01:16;12.17;;;8.40;;
1082;SDS011;530;51.448;7.238;2023-04-06T02:03:41;11.37;;;7.83;;
1082;SDS011;530;51.448;7.238;2023-04-06T02:06:07;13.27;;;8.30;;
1082;SDS011;530;51.448;7.238;2023-04-06T02:08:33;9.67;;;8.37;;
1082;SDS011;530;51.448;7.238;2023-04-06T02:10:59;10.80;;;8.20;;
1082;SDS011;530;51.448;7.238;2023-04-06T02:13:24;12.13;;;8.73;;
1082;SDS011;530;51.448;7.238;2023-04-06T02:15:50;9.13;;;8.23;;
1082;SDS011;530;51.448;7.238;2023-04-06T02:18:16;10.90;;;8.67;;
1082;SDS011;530;51.448;7.238;2023-04-06T02:20:43;10.43;;;8.60;;
1082;SDS011;530;51.448;7.238;2023-04-06T02:23:09;14.67;;;8.30;;
1082;SDS011;530;51.448;7.238;2023-04-06T02:25:35;10.80;;;8.27;;
1082;SDS011;530;51.448;7.238;2023-04-06T02:28:01;9.90;;;7.90;;
1082;SDS011;530;51.448;7.238;2023-04-06T02:30:27;9.83;;;7.93;;
1082;SDS011;530;51.448;7.238;2023-04-06T02:32:54;10.77;;;8.60;;
1082;SDS011;530;51.448;7.238;2023-04-06T02:35:19;14.67;;;8.60;;
1082;SDS011;530;51.448;7.238;2023-04-06T02:37:45;12.37;;;8.00;;
1082;SDS011;530;51.448;7.238;2023-04-06T02:40:11;9.50;;;7.83;;
1082;SDS011;530;51.448;7.238;2023-04-06T02:42:37;9.43;;;7.70;;
1082;SDS011;530;51.448;7.238;2023-04-06T02:45:02;9.70;;;7.80;;
1082;SDS011;530;51.448;7.238;2023-04-06T02:47:28;9.50;;;7.40;;
1082;SDS011;530;51.448;7.238;2023-04-06T02:49:54;10.77;;;8.33;;
1082;SDS011;530;51.448;7.238;2023-04-06T02:52:20;9.40;;;7.30;;
1082;SDS011;530;51.448;7.238;2023-04-06T02:54:45;9.60;;;8.07;;
1082;SDS011;530;51.448;7.238;2023-04-06T02:57:11;11.37;;;8.10;;
1082;SDS011;530;51.448;7.238;2023-04-06T02:59:37;11.60;;;8.27;;
1082;SDS011;530;51.448;7.238;2023-04-06T03:02:03;11.53;;;8.07;;
1082;SDS011;530;51.448;7.238;2023-04-06T03:04:28;9.13;;;7.30;;
1082;SDS011;530;51.448;7.238;2023-04-06T03:06:54;10.87;;;7.70;;
1082;SDS011;530;51.448;7.238;2023-04-06T03:09:20;9.90;;;7.80;;
1082;SDS011;530;51.448;7.238;2023-04-06T03:11:46;9.20;;;7.43;;
1082;SDS011;530;51.448;7.238;2023-04-06T03:14:12;10.20;;;8.20;;
1082;SDS011;530;51.448;7.238;2023-04-06T03:16:37;9.80;;;7.93;;
1082;SDS011;530;51.448;7.238;2023-04-06T03:19:03;8.80;;;7.90;;
1082;SDS011;530;51.448;7.238;2023-04-06T03:21:29;10.90;;;8.73;;
1082;SDS011;530;51.448;7.238;2023-04-06T03:23:54;9.50;;;7.93;;
1082;SDS011;530;51.448;7.238;2023-04-06T03:26:20;13.03;;;8.90;;
1082;SDS011;530;51.448;7.238;2023-04-06T03:28:47;9.83;;;7.80;;
1082;SDS011;530;51.448;7.238;2023-04-06T03:31:12;10.40;;;7.67;;
1082;SDS011;530;51.448;7.238;2023-04-06T03:33:38;9.20;;;7.87;;
1082;SDS011;530;51.448;7.238;2023-04-06T03:36:04;9.07;;;7.90;;
1082;SDS011;530;51.448;7.238;2023-04-06T03:38:31;10.80;;;8.37;;
1082;SDS011;530;51.448;7.238;2023-04-06T03:40:57;8.90;;;7.50;;
1082;SDS011;530;51.448;7.238;2023-04-06T03:43:23;10.03;;;8.33;;
1082;SDS011;530;51.448;7.238;2023-04-06T03:45:48;10.20;;;8.00;;
1082;SDS011;530;51.448;7.238;2023-04-06T03:48:14;11.37;;;8.43;;
1082;SDS011;530;51.448;7.238;2023-04-06T03:50:40;9.10;;;7.40;;
1082;SDS011;530;51.448;7.238;2023-04-06T03:53:06;10.10;;;7.83;;
1082;SDS011;530;51.448;7.238;2023-04-06T03:55:31;8.30;;;7.17;;
1082;SDS011;530;51.448;7.238;2023-04-06T03:57:57;12.50;;;8.60;;
1082;SDS011;530;51.448;7.238;2023-04-06T04:00:23;9.50;;;7.57;;
1082;SDS011;530;51.448;7.238;2023-04-06T04:02:49;9.93;;;7.97;;
1082;SDS011;530;51.448;7.238;2023-04-06T04:05:15;8.73;;;7.60;;
1082;SDS011;530;51.448;7.238;2023-04-06T04:07:41;10.10;;;7.93;;
1082;SDS011;530;51.448;7.238;2023-04-06T04:10:07;8.97;;;7.80;;
1082;SDS011;530;51.448;7.238;2023-04-06T04:12:33;10.43;;;7.70;;
1082;SDS011;530;51.448;7.238;2023-04-06T04:14:59;8.47;;;7.63;;
1082;SDS011;530;51.448;7.238;2023-04-06T04:17:24;7.60;;;6.80;;
1082;SDS011;530;51.448;7.238;2023-04-06T04:19:50;10.93;;;7.83;;
1082;SDS011;530;51.448;7.238;2023-04-06T04:22:16;9.93;;;7.93;;
1082;SDS011;530;51.448;7.238;2023-04-06T04:24:41;11.00;;;8.27;;
1082;SDS011;530;51.448;7.238;2023-04-06T04:27:07;9.17;;;7.90;;
1082;SDS011;530;51.448;7.238;2023-04-06T04:29:33;10.27;;;8.00;;
1082;SDS011;530;51.448;7.238;2023-04-06T04:31:59;10.73;;;8.00;;
1082;SDS011;530;51.448;7.238;2023-04-06T04:34:25;8.80;;;7.20;;
1082;SDS011;530;51.448;7.238;2023-04-06T04:36:51;9.77;;;8.23;;
1082;SDS011;530;51.448;7.238;2023-04-06T04:39:17;12.17;;;8.50;;
1082;SDS011;530;51.448;7.238;2023-04-06T04:41:43;9.73;;;7.57;;
1082;SDS011;530;51.448;7.238;2023-04-06T04:44:08;11.03;;;8.40;;
1082;SDS011;530;51.448;7.238;2023-04-06T04:46:34;10.57;;;7.40;;
1082;SDS011;530;51.448;7.238;2023-04-06T04:49:00;9.70;;;7.20;;
1082;SDS011;530;51.448;7.238;2023-04-06T04:51:25;9.03;;;7.90;;
1082;SDS011;530;51.448;7.238;2023-04-06T04:53:51;11.10;;;8.50;;
1082;SDS011;530;51.448;7.238;2023-04-06T04:56:17;11.53;;;7.60;;
1082;SDS011;530;51.448;7.238;2023-04-06T04:58:43;8.63;;;7.73;;
1082;SDS011;530;51.448;7.238;2023-04-06T05:01:08;9.50;;;7.93;;
1082;SDS011;530;51.448;7.238;2023-04-06T05:03:34;9.97;;;7.90;;
1082;SDS011;530;51.448;7.238;2023-04-06T05:06:03;8.30;;;7.50;;
1082;SDS011;530;51.448;7.238;2023-04-06T05:08:30;10.97;;;7.53;;
1082;SDS011;530;51.448;7.238;2023-04-06T05:10:56;10.10;;;8.10;;
1082;SDS011;530;51.448;7.238;2023-04-06T05:13:21;9.53;;;7.80;;
1082;SDS011;530;51.448;7.238;2023-04-06T05:15:47;15.90;;;7.87;;
1082;SDS011;530;51.448;7.238;2023-04-06T05:18:13;12.97;;;9.33;;
1082;SDS011;530;51.448;7.238;2023-04-06T05:20:39;9.83;;;7.43;;
1082;SDS011;530;51.448;7.238;2023-04-06T05:23:05;9.53;;;7.37;;
1082;SDS011;530;51.448;7.238;2023-04-06T05:25:31;11.93;;;7.60;;
1082;SDS011;530;51.448;7.238;2023-04-06T05:27:58;8.60;;;7.27;;
1082;SDS011;530;51.448;7.238;2023-04-06T05:30:23;10.90;;;8.10;;
1082;SDS011;530;51.448;7.238;2023-04-06T05:32:50;10.40;;;7.50;;
1082;SDS011;530;51.448;7.238;2023-04-06T05:35:15;14.73;;;7.97;;
1082;SDS011;530;51.448;7.238;2023-04-06T05:37:42;11.40;;;8.20;;
1082;SDS011;530;51.448;7.238;2023-04-06T05:40:08;8.50;;;7.53;;
1082;SDS011;530;51.448;7.238;2023-04-06T05:42:37;11.20;;;7.20;;
1082;SDS011;530;51.448;7.238;2023-04-06T05:45:04;9.37;;;6.70;;
1082;SDS011;530;51.448;7.238;2023-04-06T05:47:33;10.43;;;7.37;;
1082;SDS011;530;51.448;7.238;2023-04-06T05:49:59;10.93;;;7.20;;
1082;SDS011;530;51.448;7.238;2023-04-06T05:52:25;10.77;;;7.53;;
1082;SDS011;530;51.448;7.238;2023-04-06T05:54:51;12.07;;;7.90;;
1082;SDS011;530;51.448;7.238;2023-04-06T05:57:17;8.93;;;7.67;;
1082;SDS011;530;51.448;7.238;2023-04-06T05:59:43;10.03;;;8.10;;
1082;SDS011;530;51.448;7.238;2023-04-06T06:02:09;8.23;;;7.23;;
1082;SDS011;530;51.448;7.238;2023-04-06T06:04:35;8.50;;;7.40;;
1082;SDS011;530;51.448;7.238;2023-04-06T06:07:01;11.23;;;7.90;;
1082;SDS011;530;51.448;7.238;2023-04-06T06:09:27;9.70;;;7.57;;
1082;SDS011;530;51.448;7.238;2023-04-06T06:11:52;9.53;;;7.70;;
1082;SDS011;530;51.448;7.238;2023-04-06T06:14:18;10.60;;;7.97;;
1082;SDS011;530;51.448;7.238;2023-04-06T06:16:44;8.43;;;7.37;;
1082;SDS011;530;51.448;7.238;2023-04-06T06:19:09;7.83;;;6.60;;
1082;SDS011;530;51.448;7.238;2023-04-06T06:21:35;8.77;;;7.87;;
1082;SDS011;530;51.448;7.238;2023-04-06T06:24:01;12.70;;;7.40;;
1082;SDS011;530;51.448;7.238;2023-04-06T06:26:27;9.67;;;7.10;;
1082;SDS011;530;51.448;7.238;2023-04-06T06:28:52;10.70;;;7.50;;
1082;SDS011;530;51.448;7.238;2023-04-06T06:31:18;8.30;;;7.23;;
1082;SDS011;530;51.448;7.238;2023-04-06T06:33:47;8.77;;;7.93;;
1082;SDS011;530;51.448;7.238;2023-04-06T06:36:16;11.90;;;8.07;;
1082;SDS011;530;51.448;7.238;2023-04-06T06:38:42;22.50;;;7.47;;
1082;SDS011;530;51.448;7.238;2023-04-06T06:41:08;8.93;;;7.10;;
1082;SDS011;530;51.448;7.238;2023-04-06T06:43:34;7.87;;;7.07;;
1082;SDS011;530;51.448;7.238;2023-04-06T06:46:00;8.10;;;6.83;;
1082;SDS011;530;51.448;7.238;2023-04-06T06:48:26;7.63;;;6.83;;
1082;SDS011;530;51.448;7.238;2023-04-06T06:50:52;8.20;;;7.30;;
1082;SDS011;530;51.448;7.238;2023-04-06T06:53:17;8.13;;;7.00;;
1082;SDS011;530;51.448;7.238;2023-04-06T06:55:44;11.07;;;8.07;;
1082;SDS011;530;51.448;7.238;2023-04-06T06:58:09;8.17;;;6.93;;
1082;SDS011;530;51.448;7.238;2023-04-06T07:00:35;9.40;;;7.17;;
1082;SDS011;530;51.448;7.238;2023-04-06T07:03:01;8.00;;;6.90;;
1082;SDS011;530;51.448;7.238;2023-04-06T07:05:27;10.83;;;7.50;;
1082;SDS011;530;51.448;7.238;2023-04-06T07:07:53;9.20;;;7.90;;
1082;SDS011;530;51.448;7.238;2023-04-06T07:10:19;9.13;;;7.50;;
1082;SDS011;530;51.448;7.238;2023-04-06T07:12:45;8.43;;;7.40;;
1082;SDS011;530;51.448;7.238;2023-04-06T07:15:11;9.67;;;7.37;;
1082;SDS011;530;51.448;7.238;2023-04-06T07:17:37;8.77;;;6.93;;
1082;SDS011;530;51.448;7.238;2023-04-06T07:20:03;9.50;;;8.13;;
1082;SDS011;530;51.448;7.238;2023-04-06T07:22:29;10.30;;;7.30;;
1082;SDS011;530;51.448;7.238;2023-04-06T07:24:55;11.00;;;7.43;;
1082;SDS011;530;51.448;7.238;2023-04-06T07:27:21;11.50;;;8.60;;
1082;SDS011;530;51.448;7.238;2023-04-06T07:29:47;9.37;;;7.53;;
1082;SDS011;530;51.448;7.238;2023-04-06T07:32:13;8.27;;;7.30;;
1082;SDS011;530;51.448;7.238;2023-04-06T07:34:38;10.90;;;8.77;;
1082;SDS011;530;51.448;7.238;2023-04-06T07:37:04;9.40;;;7.47;;
1082;SDS011;530;51.448;7.238;2023-04-06T07:39:30;9.27;;;7.43;;
1082;SDS011;530;51.448;7.238;2023-04-06T07:41:56;8.53;;;7.37;;
1082;SDS011;530;51.448;7.238;2023-04-06T07:44:21;13.20;;;8.83;;
1082;SDS011;530;51.448;7.238;2023-04-06T07:46:47;10.83;;;8.40;;
1082;SDS011;530;51.448;7.238;2023-04-06T07:49:13;8.47;;;7.50;;
1082;SDS011;530;51.448;7.238;2023-04-06T07:51:39;8.93;;;8.03;;
1082;SDS011;530;51.448;7.238;2023-04-06T07:54:05;11.00;;;8.43;;
1082;SDS011;530;51.448;7.238;2023-04-06T07:56:31;12.23;;;7.70;;
1082;SDS011;530;51.448;7.238;2023-04-06T07:58:57;8.27;;;7.37;;
1082;SDS011;530;51.448;7.238;2023-04-06T08:01:23;8.60;;;7.13;;
1082;SDS011;530;51.448;7.238;2023-04-06T08:03:49;12.00;;;7.37;;
1082;SDS011;530;51.448;7.238;2023-04-06T08:06:16;9.60;;;7.50;;
1082;SDS011;530;51.448;7.238;2023-04-06T08:08:42;9.93;;;8.27;;
1082;SDS011;530;51.448;7.238;2023-04-06T08:11:08;11.70;;;8.00;;
1082;SDS011;530;51.448;7.238;2023-04-06T08:13:34;8.87;;;7.80;;
1082;SDS011;530;51.448;7.238;2023-04-06T08:16:00;12.13;;;8.73;;
1082;SDS011;530;51.448;7.238;2023-04-06T08:18:26;12.23;;;8.47;;
1082;SDS011;530;51.448;7.238;2023-04-06T08:20:52;9.20;;;7.47;;
1082;SDS011;530;51.448;7.238;2023-04-06T08:23:17;9.40;;;7.53;;
1082;SDS011;530;51.448;7.238;2023-04-06T08:25:43;9.93;;;7.57;;
1082;SDS011;530;51.448;7.238;2023-04-06T08:28:09;9.97;;;7.60;;
1082;SDS011;530;51.448;7.238;2023-04-06T08:30:35;10.63;;;8.50;;
1082;SDS011;530;51.448;7.238;2023-04-06T08:33:01;9.73;;;7.90;;
1082;SDS011;530;51.448;7.238;2023-04-06T08:35:27;11.67;;;8.17;;
1082;SDS011;530;51.448;7.238;2023-04-06T08:37:53;12.23;;;8.40;;
1082;SDS011;530;51.448;7.238;2023-04-06T08:40:18;9.17;;;7.70;;
1082;SDS011;530;51.448;7.238;2023-04-06T08:42:47;12.67;;;9.47;;
1082;SDS011;530;51.448;7.238;2023-04-06T08:45:17;9.63;;;7.47;;
1082;SDS011;530;51.448;7.238;2023-04-06T08:47:46;10.00;;;8.27;;
1082;SDS011;530;51.448;7.238;2023-04-06T08:50:13;13.70;;;8.63;;
1082;SDS011;530;51.448;7.238;2023-04-06T08:52:41;11.83;;;8.73;;
1082;SDS011;530;51.448;7.238;2023-04-06T08:55:08;12.20;;;8.73;;
1082;SDS011;530;51.448;7.238;2023-04-06T08:57:35;10.80;;;8.40;;
1082;SDS011;530;51.448;7.238;2023-04-06T09:00:01;11.57;;;10.07;;
1082;SDS011;530;51.448;7.238;2023-04-06T09:02:27;11.93;;;10.33;;
1082;SDS011;530;51.448;7.238;2023-04-06T09:04:53;13.50;;;10.80;;
1082;SDS011;530;51.448;7.238;2023-04-06T09:07:20;13.77;;;10.37;;
1082;SDS011;530;51.448;7.238;2023-04-06T09:09:46;12.67;;;9.13;;
1082;SDS011;530;51.448;7.238;2023-04-06T09:12:26;10.07;;;8.97;;
1082;SDS011;530;51.448;7.238;2023-04-06T09:14:53;11.37;;;9.60;;
1082;SDS011;530;51.448;7.238;2023-04-06T09:17:24;11.43;;;9.50;;
1082;SDS011;530;51.448;7.238;2023-04-06T09:19:50;14.37;;;9.90;;
1082;SDS011;530;51.448;7.238;2023-04-06T09:22:17;13.40;;;9.60;;
1082;SDS011;530;51.448;7.238;2023-04-06T09:24:43;11.53;;;9.47;;
1082;SDS011;530;51.448;7.238;2023-04-06T09:27:10;14.07;;;9.70;;
1082;SDS011;530;51.448;7.238;2023-04-06T09:29:36;14.10;;;9.73;;
1082;SDS011;530;51.448;7.238;2023-04-06T09:32:05;16.63;;;11.23;;
1082;SDS011;530;51.448;7.238;2023-04-06T09:34:32;12.30;;;9.80;;
1082;SDS011;530;51.448;7.238;2023-04-06T09:36:59;13.73;;;10.37;;
1082;SDS011;530;51.448;7.238;2023-04-06T09:39:25;16.70;;;10.97;;
1082;SDS011;530;51.448;7.238;2023-04-06T09:41:51;14.90;;;10.67;;
1082;SDS011;530;51.448;7.238;2023-04-06T09:44:19;17.73;;;10.30;;
1082;SDS011;530;51.448;7.238;2023-04-06T09:46:45;13.67;;;11.00;;
1082;SDS011;530;51.448;7.238;2023-04-06T09:49:12;13.47;;;10.20;;
1082;SDS011;530;51.448;7.238;2023-04-06T09:51:40;17.70;;;11.10;;
1082;SDS011;530;51.448;7.238;2023-04-06T09:54:09;14.93;;;10.57;;
1082;SDS011;530;51.448;7.238;2023-04-06T09:59:18;13.20;;;10.70;;
1082;SDS011;530;51.448;7.238;2023-04-06T10:01:53;12.77;;;10.03;;
1082;SDS011;530;51.448;7.238;2023-04-06T10:06:54;17.30;;;11.23;;
1082;SDS011;530;51.448;7.238;2023-04-06T10:09:23;15.33;;;11.50;;
1082;SDS011;530;51.448;7.238;2023-04-06T10:11:50;21.40;;;11.60;;
1082;SDS011;530;51.448;7.238;2023-04-06T10:14:17;15.00;;;11.83;;
1082;SDS011;530;51.448;7.238;2023-04-06T10:16:43;15.20;;;11.90;;
1082;SDS011;530;51.448;7.238;2023-04-06T10:19:12;16.00;;;12.20;;
1082;SDS011;530;51.448;7.238;2023-04-06T10:21:42;14.83;;;11.27;;
1082;SDS011;530;51.448;7.238;2023-04-06T10:24:13;22.03;;;13.30;;
1082;SDS011;530;51.448;7.238;2023-04-06T10:26:39;16.87;;;13.50;;
1082;SDS011;530;51.448;7.238;2023-04-06T10:29:05;18.33;;;14.50;;
1082;SDS011;530;51.448;7.238;2023-04-06T10:31:31;17.27;;;13.97;;
1082;SDS011;530;51.448;7.238;2023-04-06T10:34:01;16.83;;;12.80;;
1082;SDS011;530;51.448;7.238;2023-04-06T10:36:28;18.70;;;14.37;;
1082;SDS011;530;51.448;7.238;2023-04-06T10:38:57;17.17;;;13.27;;
1082;SDS011;530;51.448;7.238;2023-04-06T10:41:31;16.07;;;12.40;;
1082;SDS011;530;51.448;7.238;2023-04-06T10:44:22;23.30;;;17.40;;
1082;SDS011;530;51.448;7.238;2023-04-06T10:46:52;18.57;;;15.70;;
1082;SDS011;530;51.448;7.238;2023-04-06T10:49:20;18.20;;;14.90;;
1082;SDS011;530;51.448;7.238;2023-04-06T10:51:50;20.40;;;16.30;;
1082;SDS011;530;51.448;7.238;2023-04-06T10:54:17;21.83;;;15.50;;
1082;SDS011;530;51.448;7.238;2023-04-06T10:56:46;16.83;;;13.43;;
1082;SDS011;530;51.448;7.238;2023-04-06T10:59:11;19.23;;;14.90;;
1082;SDS011;530;51.448;7.238;2023-04-06T11:01:37;18.93;;;15.40;;
1082;SDS011;530;51.448;7.238;2023-04-06T11:04:03;21.37;;;15.60;;
1082;SDS011;530;51.448;7.238;2023-04-06T11:06:29;20.93;;;16.30;;
1082;SDS011;530;51.448;7.238;2023-04-06T11:08:56;20.70;;;15.50;;
1082;SDS011;530;51.448;7.238;2023-04-06T11:11:23;23.00;;;17.10;;
1082;SDS011;530;51.448;7.238;2023-04-06T11:13:52;21.53;;;16.57;;
1082;SDS011;530;51.448;7.238;2023-04-06T11:16:22;20.30;;;17.20;;
1082;SDS011;530;51.448;7.238;2023-04-06T11:24:12;20.07;;;15.20;;
1082;SDS011;530;51.448;7.238;2023-04-06T11:29:17;19.00;;;16.30;;
1082;SDS011;530;51.448;7.238;2023-04-06T11:31:48;26.00;;;18.30;;
1082;SDS011;530;51.448;7.238;2023-04-06T11:34:22;22.20;;;17.00;;
1082;SDS011;530;51.448;7.238;2023-04-06T11:36:49;22.70;;;18.67;;
1082;SDS011;530;51.448;7.238;2023-04-06T11:39:23;20.50;;;16.60;;
1082;SDS011;530;51.448;7.238;2023-04-06T11:41:51;22.30;;;17.10;;
1082;SDS011;530;51.448;7.238;2023-04-06T11:47:10;20.07;;;16.07;;
1082;SDS011;530;51.448;7.238;2023-04-06T11:49:37;24.80;;;18.17;;
1082;SDS011;530;51.448;7.238;2023-04-06T11:52:14;22.30;;;16.93;;
1082;SDS011;530;51.448;7.238;2023-04-06T11:54:44;21.13;;;15.43;;
1082;SDS011;530;51.448;7.238;2023-04-06T11:57:10;24.53;;;16.70;;
1082;SDS011;530;51.448;7.238;2023-04-06T11:59:36;17.00;;;13.67;;
1082;SDS011;530;51.448;7.238;2023-04-06T12:02:02;20.40;;;14.97;;
1082;SDS011;530;51.448;7.238;2023-04-06T12:04:29;16.83;;;13.40;;
1082;SDS011;530;51.448;7.238;2023-04-06T12:06:55;17.23;;;13.47;;
1082;SDS011;530;51.448;7.238;2023-04-06T12:09:21;14.57;;;12.17;;
1082;SDS011;530;51.448;7.238;2023-04-06T12:11:47;17.93;;;12.03;;
1082;SDS011;530;51.448;7.238;2023-04-06T12:14:13;16.93;;;12.97;;
1082;SDS011;530;51.448;7.238;2023-04-06T12:16:39;22.90;;;13.10;;
1082;SDS011;530;51.448;7.238;2023-04-06T12:19:05;16.20;;;11.90;;
1082;SDS011;530;51.448;7.238;2023-04-06T12:21:31;16.33;;;13.17;;
1082;SDS011;530;51.448;7.238;2023-04-06T12:24:02;16.30;;;12.50;;
1082;SDS011;530;51.448;7.238;2023-04-06T12:26:29;17.00;;;12.40;;
1082;SDS011;530;51.448;7.238;2023-04-06T12:28:55;18.30;;;13.40;;
1082;SDS011;530;51.448;7.238;2023-04-06T12:31:21;16.23;;;12.90;;
1082;SDS011;530;51.448;7.238;2023-04-06T12:33:51;17.23;;;12.67;;
1082;SDS011;530;51.448;7.238;2023-04-06T12:36:18;15.73;;;12.07;;
1082;SDS011;530;51.448;7.238;2023-04-06T12:38:45;16.47;;;12.20;;
1082;SDS011;530;51.448;7.238;2023-04-06T12:41:11;15.83;;;12.30;;
1082;SDS011;530;51.448;7.238;2023-04-06T12:43:39;17.30;;;12.67;;
1082;SDS011;530;51.448;7.238;2023-04-06T12:46:05;17.00;;;12.10;;
1082;SDS011;530;51.448;7.238;2023-04-06T12:48:31;15.60;;;13.33;;
1082;SDS011;530;51.448;7.238;2023-04-06T12:50:57;20.03;;;13.10;;
1082;SDS011;530;51.448;7.238;2023-04-06T12:53:24;15.37;;;12.13;;
1082;SDS011;530;51.448;7.238;2023-04-06T12:55:50;17.37;;;13.70;;
1082;SDS011;530;51.448;7.238;2023-04-06T12:58:17;19.37;;;13.87;;
1082;SDS011;530;51.448;7.238;2023-04-06T13:00:43;16.27;;;12.67;;
1082;SDS011;530;51.448;7.238;2023-04-06T13:03:08;17.50;;;12.97;;
1082;SDS011;530;51.448;7.238;2023-04-06T13:05:34;20.27;;;13.50;;
1082;SDS011;530;51.448;7.238;2023-04-06T13:08:00;16.97;;;13.40;;
1082;SDS011;530;51.448;7.238;2023-04-06T13:10:26;18.80;;;12.73;;
1082;SDS011;530;51.448;7.238;2023-04-06T13:12:52;16.43;;;12.30;;
1082;SDS011;530;51.448;7.238;2023-04-06T13:15:17;14.80;;;11.57;;
1082;SDS011;530;51.448;7.238;2023-04-06T13:17:43;16.43;;;12.50;;
1082;SDS011;530;51.448;7.238;2023-04-06T13:20:09;13.60;;;12.17;;
1082;SDS011;530;51.448;7.238;2023-04-06T13:22:35;16.37;;;13.50;;
1082;SDS011;530;51.448;7.238;2023-04-06T13:25:01;17.10;;;13.00;;
1082;SDS011;530;51.448;7.238;2023-04-06T13:27:27;15.67;;;11.50;;
1082;SDS011;530;51.448;7.238;2023-04-06T13:29:53;22.23;;;13.80;;
1082;SDS011;530;51.448;7.238;2023-04-06T13:32:21;16.73;;;13.47;;
1082;SDS011;530;51.448;7.238;2023-04-06T13:34:46;16.60;;;13.37;;
1082;SDS011;530;51.448;7.238;2023-04-06T13:37:13;17.10;;;12.53;;
1082;SDS011;530;51.448;7.238;2023-04-06T13:39:40;15.50;;;12.53;;
1082;SDS011;530;51.448;7.238;2023-04-06T13:42:05;17.13;;;12.43;;
1082;SDS011;530;51.448;7.238;2023-04-06T13:44:32;16.77;;;12.40;;
1082;SDS011;530;51.448;7.238;2023-04-06T13:46:57;18.63;;;13.87;;
1082;SDS011;530;51.448;7.238;2023-04-06T13:49:24;16.93;;;12.23;;
1082;SDS011;530;51.448;7.238;2023-04-06T13:51:50;16.50;;;12.53;;
1082;SDS011;530;51.448;7.238;2023-04-06T13:54:16;15.90;;;12.03;;
1082;SDS011;530;51.448;7.238;2023-04-06T13:56:42;15.80;;;11.70;;
1082;SDS011;530;51.448;7.238;2023-04-06T13:59:07;16.13;;;12.83;;
1082;SDS011;530;51.448;7.238;2023-04-06T14:01:33;16.60;;;12.73;;
1082;SDS011;530;51.448;7.238;2023-04-06T14:03:59;15.33;;;11.47;;
1082;SDS011;530;51.448;7.238;2023-04-06T14:06:25;15.03;;;10.73;;
1082;SDS011;530;51.448;7.238;2023-04-06T14:08:51;16.43;;;11.73;;
1082;SDS011;530;51.448;7.238;2023-04-06T14:11:16;13.80;;;11.40;;
1082;SDS011;530;51.448;7.238;2023-04-06T14:13:42;13.10;;;10.80;;
1082;SDS011;530;51.448;7.238;2023-04-06T14:16:08;12.73;;;9.90;;
1082;SDS011;530;51.448;7.238;2023-04-06T14:18:34;11.13;;;8.67;;
1082;SDS011;530;51.448;7.238;2023-04-06T14:21:01;11.80;;;8.97;;
1082;SDS011;530;51.448;7.238;2023-04-06T14:23:27;12.57;;;9.43;;
1082;SDS011;530;51.448;7.238;2023-04-06T14:26:06;14.07;;;9.40;;
1082;SDS011;530;51.448;7.238;2023-04-06T14:28:33;10.50;;;9.07;;
1082;SDS011;530;51.448;7.238;2023-04-06T14:31:09;14.77;;;10.60;;
1082;SDS011;530;51.448;7.238;2023-04-06T14:33:36;15.17;;;11.53;;
1082;SDS011;530;51.448;7.238;2023-04-06T14:36:02;17.17;;;13.23;;
1082;SDS011;530;51.448;7.238;2023-04-06T14:38:29;18.83;;;12.80;;
1082;SDS011;530;51.448;7.238;2023-04-06T14:40:55;15.20;;;11.77;;
1082;SDS011;530;51.448;7.238;2023-04-06T14:43:21;15.43;;;12.30;;
1082;SDS011;530;51.448;7.238;2023-04-06T14:45:46;14.60;;;11.33;;
1082;SDS011;530;51.448;7.238;2023-04-06T14:48:13;15.33;;;11.10;;
1082;SDS011;530;51.448;7.238;2023-04-06T14:50:41;16.70;;;11.50;;
1082;SDS011;530;51.448;7.238;2023-04-06T14:53:11;14.77;;;11.87;;
1082;SDS011;530;51.448;7.238;2023-04-06T14:55:39;14.13;;;11.20;;
1082;SDS011;530;51.448;7.238;2023-04-06T14:58:06;15.73;;;11.40;;
1082;SDS011;530;51.448;7.238;2023-04-06T15:00:31;13.93;;;11.23;;
1082;SDS011;530;51.448;7.238;2023-04-06T15:02:57;13.50;;;10.90;;
1082;SDS011;530;51.448;7.238;2023-04-06T15:05:23;13.00;;;11.20;;
1082;SDS011;530;51.448;7.238;2023-04-06T15:07:48;14.67;;;9.80;;
1082;SDS011;530;51.448;7.238;2023-04-06T15:10:14;12.20;;;9.73;;
1082;SDS011;530;51.448;7.238;2023-04-06T15:12:40;12.00;;;9.10;;
1082;SDS011;530;51.448;7.238;2023-04-06T15:15:06;10.93;;;9.27;;
1082;SDS011;530;51.448;7.238;2023-04-06T15:17:33;10.30;;;9.20;;
1082;SDS011;530;51.448;7.238;2023-04-06T15:19:59;12.83;;;9.60;;
1082;SDS011;530;51.448;7.238;2023-04-06T15:22:24;11.83;;;9.80;;
1082;SDS011;530;51.448;7.238;2023-04-06T15:24:50;13.53;;;9.13;;
1082;SDS011;530;51.448;7.238;2023-04-06T15:27:16;12.37;;;11.07;;